createdAt,value
2023-04-19T00:01:31.527Z,9.49
2023-04-19T00:03:36.599Z,9.55
2023-04-19T00:05:41.859Z,9.62
2023-04-19T00:07:47.348Z,9.68
2023-04-19T00:09:54.891Z,9.70
2023-04-19T00:11:59.805Z,9.67
2023-04-19T00:14:04.837Z,9.64
2023-04-19T00:16:11.013Z,9.68
2023-04-19T00:18:16.129Z,9.70
2023-04-19T00:20:21.119Z,9.74
2023-04-19T00:22:26.399Z,9.78
2023-04-19T00:24:31.265Z,9.77
2023-04-19T00:26:39.000Z,9.73
2023-04-19T00:28:44.702Z,9.62
2023-04-19T00:30:49.697Z,9.52
2023-04-19T00:32:55.045Z,9.37
2023-04-19T00:35:02.868Z,9.32
2023-04-19T00:37:11.766Z,9.34
2023-04-19T00:39:18.324Z,9.32
2023-04-19T00:41:23.163Z,9.25
2023-04-19T00:43:30.686Z,9.25
2023-04-19T00:45:37.885Z,9.19
2023-04-19T00:47:43.224Z,9.18
2023-04-19T00:49:48.191Z,9.18
2023-04-19T00:51:54.753Z,9.20
2023-04-19T00:54:00.341Z,9.21
2023-04-19T00:56:08.290Z,9.23
2023-04-19T00:58:15.066Z,9.23
2023-04-19T01:00:23.264Z,9.26
2023-04-19T01:02:30.256Z,9.30
2023-04-19T01:04:35.384Z,9.29
2023-04-19T01:06:43.220Z,9.34
2023-04-19T01:08:49.296Z,9.40
2023-04-19T01:10:54.180Z,9.43
2023-04-19T01:12:59.625Z,9.35
2023-04-19T01:15:05.019Z,9.30
2023-04-19T01:17:13.693Z,9.36
2023-04-19T01:19:18.636Z,9.44
2023-04-19T01:21:23.905Z,9.49
2023-04-19T01:23:31.225Z,9.48
2023-04-19T01:25:36.190Z,9.45
2023-04-19T01:27:44.282Z,9.47
2023-04-19T01:29:49.223Z,9.46
2023-04-19T01:31:55.524Z,9.46
2023-04-19T01:34:00.892Z,9.49
2023-04-19T01:36:06.099Z,9.36
2023-04-19T01:38:12.936Z,9.27
2023-04-19T01:40:22.354Z,9.27
2023-04-19T01:42:27.409Z,9.27
2023-04-19T01:44:32.304Z,9.23
2023-04-19T01:46:39.120Z,9.18
2023-04-19T01:48:44.456Z,9.17
2023-04-19T01:50:49.369Z,9.22
2023-04-19T01:52:54.244Z,9.22
2023-04-19T01:54:59.492Z,9.19
2023-04-19T01:57:06.946Z,9.16
2023-04-19T01:59:11.892Z,9.13
2023-04-19T02:01:17.024Z,9.04
2023-04-19T02:03:21.887Z,8.97
2023-04-19T02:05:27.838Z,8.88
2023-04-19T02:07:32.751Z,8.75
2023-04-19T02:09:38.773Z,8.70
2023-04-19T02:11:43.863Z,8.76
2023-04-19T02:13:51.374Z,8.85
2023-04-19T02:15:56.321Z,8.81
2023-04-19T02:18:02.172Z,8.75
2023-04-19T02:20:09.405Z,8.75
2023-04-19T02:22:14.311Z,8.81
2023-04-19T02:24:19.254Z,8.87
2023-04-19T02:26:24.730Z,8.91
2023-04-19T02:28:29.701Z,8.95
2023-04-19T02:30:37.206Z,8.99
2023-04-19T02:32:42.180Z,9.01
2023-04-19T02:34:47.072Z,9.03
2023-04-19T02:36:52.177Z,9.09
2023-04-19T02:38:57.034Z,9.13
2023-04-19T02:41:04.552Z,9.15
2023-04-19T02:43:09.522Z,9.17
2023-04-19T02:45:14.704Z,9.16
2023-04-19T02:47:22.156Z,9.09
2023-04-19T02:49:27.264Z,9.03
2023-04-19T02:51:32.462Z,8.91
2023-04-19T02:53:37.508Z,8.89
2023-04-19T02:55:42.917Z,8.89
2023-04-19T02:57:53.844Z,8.87
2023-04-19T02:59:59.157Z,8.89
2023-04-19T03:02:04.157Z,8.88
2023-04-19T03:04:11.999Z,8.89
2023-04-19T03:06:18.433Z,8.89
2023-04-19T03:08:23.303Z,8.92
2023-04-19T03:10:28.335Z,8.94
2023-04-19T03:12:33.246Z,8.96
2023-04-19T03:14:38.134Z,8.95
2023-04-19T03:16:43.040Z,8.96
2023-04-19T03:18:49.572Z,8.97
2023-04-19T03:21:00.457Z,8.96
2023-04-19T03:23:11.015Z,8.94
2023-04-19T03:25:16.278Z,8.95
2023-04-19T03:27:25.712Z,8.94
2023-04-19T03:29:36.443Z,8.89
2023-04-19T03:31:45.260Z,8.88
2023-04-19T03:33:51.215Z,8.86
2023-04-19T03:36:00.761Z,8.82
2023-04-19T03:38:05.797Z,8.78
2023-04-19T03:40:11.704Z,8.72
2023-04-19T03:42:17.139Z,8.67
2023-04-19T03:44:43.351Z,8.56
2023-04-19T03:46:49.149Z,8.46
2023-04-19T03:48:58.261Z,8.41
2023-04-19T03:51:06.828Z,8.34
2023-04-19T03:53:12.458Z,8.27
2023-04-19T03:55:17.341Z,8.28
2023-04-19T03:57:22.378Z,8.34
2023-04-19T03:59:28.179Z,8.39
2023-04-19T04:01:33.587Z,8.44
2023-04-19T04:03:40.147Z,8.42
2023-04-19T04:05:45.707Z,8.45
2023-04-19T04:07:52.945Z,8.41
2023-04-19T04:09:59.412Z,8.38
2023-04-19T04:12:04.518Z,8.39
2023-04-19T04:14:10.116Z,8.41
2023-04-19T04:16:16.803Z,8.37
2023-04-19T04:18:22.236Z,8.36
2023-04-19T04:20:28.035Z,8.41
2023-04-19T04:22:43.904Z,8.38
2023-04-19T04:24:54.153Z,8.40
2023-04-19T04:27:06.220Z,8.38
2023-04-19T04:29:14.485Z,8.44
2023-04-19T04:31:21.631Z,8.56
2023-04-19T04:33:27.991Z,8.70
2023-04-19T04:35:33.191Z,8.83
2023-04-19T04:37:46.833Z,8.93
2023-04-19T04:39:54.477Z,8.92
2023-04-19T04:42:00.531Z,8.92
2023-04-19T04:44:12.693Z,8.90
2023-04-19T04:46:19.201Z,8.88
2023-04-19T04:48:24.276Z,8.91
2023-04-19T04:50:29.226Z,8.86
2023-04-19T04:52:34.136Z,8.89
2023-04-19T04:54:49.488Z,8.99
2023-04-19T04:57:05.057Z,9.04
2023-04-19T04:59:11.543Z,9.07
2023-04-19T05:01:21.720Z,9.08
2023-04-19T05:03:27.041Z,9.14
2023-04-19T05:05:36.917Z,9.18
2023-04-19T05:07:42.239Z,9.23
2023-04-19T05:09:47.389Z,9.22
2023-04-19T05:11:56.697Z,9.24
2023-04-19T05:14:05.065Z,9.29
2023-04-19T05:16:11.636Z,9.31
2023-04-19T05:18:19.523Z,9.31
2023-04-19T05:20:24.835Z,9.28
2023-04-19T05:22:38.701Z,9.26
2023-04-19T05:24:47.470Z,9.33
2023-04-19T05:26:54.416Z,9.41
2023-04-19T05:29:03.721Z,9.53
2023-04-19T05:31:31.508Z,9.67
2023-04-19T05:33:55.648Z,9.70
2023-04-19T05:36:00.699Z,9.71
2023-04-19T05:38:06.654Z,9.83
2023-04-19T05:40:13.832Z,9.92
2023-04-19T05:42:19.091Z,9.97
2023-04-19T05:44:24.137Z,10.06
2023-04-19T05:46:32.037Z,10.04
2023-04-19T05:48:37.416Z,10.11
2023-04-19T05:51:00.832Z,10.06
2023-04-19T05:53:41.402Z,10.10
2023-04-19T05:55:48.277Z,10.10
2023-04-19T05:57:53.403Z,10.15
2023-04-19T06:00:03.540Z,10.22
2023-04-19T06:02:21.095Z,10.26
2023-04-19T06:04:26.375Z,10.29
2023-04-19T06:06:32.374Z,10.36
2023-04-19T06:08:37.412Z,10.42
2023-04-19T06:10:54.137Z,10.44
2023-04-19T06:13:02.620Z,10.47
2023-04-19T06:15:09.031Z,10.46
2023-04-19T06:17:16.693Z,10.46
2023-04-19T06:19:24.191Z,10.50
2023-04-19T06:21:30.001Z,10.52
2023-04-19T06:23:35.023Z,10.46
2023-04-19T06:25:39.976Z,10.51
2023-04-19T06:27:44.824Z,10.53
2023-04-19T06:29:51.223Z,10.45
2023-04-19T06:31:56.467Z,10.47
2023-04-19T06:34:01.363Z,10.47
2023-04-19T06:36:09.638Z,10.51
2023-04-19T06:38:14.645Z,10.59
2023-04-19T06:40:19.805Z,10.62
2023-04-19T06:42:26.174Z,10.72
2023-04-19T06:44:31.324Z,10.76
2023-04-19T06:46:35.970Z,10.68
2023-04-19T06:48:41.084Z,10.63
2023-04-19T06:50:46.411Z,10.67
2023-04-19T06:52:53.890Z,10.56
2023-04-19T06:54:58.721Z,10.62
2023-04-19T06:57:03.739Z,10.67
2023-04-19T06:59:08.662Z,10.68
2023-04-19T07:01:14.618Z,10.67
2023-04-19T07:03:19.776Z,10.76
2023-04-19T07:05:25.009Z,10.70
2023-04-19T07:07:29.908Z,10.79
2023-04-19T07:09:37.455Z,10.73
2023-04-19T07:11:42.864Z,10.65
2023-04-19T07:13:47.770Z,10.67
2023-04-19T07:15:52.727Z,10.65
2023-04-19T07:17:57.736Z,10.72
2023-04-19T07:20:04.183Z,10.78
2023-04-19T07:22:09.427Z,10.91
2023-04-19T07:24:14.596Z,10.95
2023-04-19T07:26:22.262Z,11.00
2023-04-19T07:28:27.227Z,11.00
2023-04-19T07:30:32.140Z,10.97
2023-04-19T07:32:37.348Z,11.02
2023-04-19T07:34:43.844Z,10.99
2023-04-19T07:36:48.779Z,10.97
2023-04-19T07:38:53.723Z,11.03
2023-04-19T07:40:58.726Z,10.93
2023-04-19T07:43:06.923Z,10.77
2023-04-19T07:45:12.932Z,10.77
2023-04-19T07:47:17.884Z,10.87
2023-04-19T07:49:22.818Z,10.80
2023-04-19T07:51:27.753Z,10.92
2023-04-19T07:53:32.622Z,10.93
2023-04-19T07:55:37.534Z,11.07
2023-04-19T07:57:48.423Z,11.15
2023-04-19T07:59:58.253Z,11.11
2023-04-19T08:02:03.243Z,11.12
2023-04-19T08:04:08.661Z,11.08
2023-04-19T08:06:14.461Z,11.05
2023-04-19T08:08:19.573Z,10.95
2023-04-19T08:10:24.508Z,10.70
2023-04-19T08:12:37.334Z,10.39
2023-04-19T08:14:59.127Z,10.37
2023-04-19T08:17:22.874Z,10.42
2023-04-19T08:19:29.398Z,10.38
2023-04-19T08:21:40.692Z,10.32
2023-04-19T08:23:48.541Z,10.15
2023-04-19T08:25:53.870Z,10.06
2023-04-19T08:27:58.793Z,10.01
2023-04-19T08:30:03.797Z,9.96
2023-04-19T08:32:11.584Z,10.07
2023-04-19T08:34:16.654Z,10.14
2023-04-19T08:36:32.492Z,10.17
2023-04-19T08:38:46.688Z,10.29
2023-04-19T08:40:56.513Z,10.11
2023-04-19T08:43:02.136Z,10.16
2023-04-19T08:45:26.783Z,10.04
2023-04-19T08:47:42.196Z,10.14
2023-04-19T08:50:11.077Z,10.29
2023-04-19T08:52:25.588Z,10.29
2023-04-19T08:54:32.741Z,10.24
2023-04-19T08:56:37.715Z,10.19
2023-04-19T09:00:53.215Z,10.25
2023-04-19T09:03:01.086Z,10.15
2023-04-19T09:05:08.027Z,9.97
2023-04-19T09:07:25.889Z,9.83
2023-04-19T09:09:39.246Z,9.76
2023-04-19T09:11:48.388Z,9.81
2023-04-19T09:13:53.344Z,9.88
2023-04-19T09:16:00.900Z,10.14
2023-04-19T09:18:11.215Z,10.18
2023-04-19T09:20:16.062Z,10.18
2023-04-19T09:22:21.733Z,10.27
2023-04-19T09:26:58.447Z,10.12
2023-04-19T09:29:05.284Z,9.93
2023-04-19T09:31:38.906Z,9.95
2023-04-19T09:33:45.378Z,10.11
2023-04-19T09:35:50.489Z,10.19
2023-04-19T09:38:06.213Z,10.19
2023-04-19T09:40:25.064Z,10.13
2023-04-19T09:47:25.415Z,10.32
2023-04-19T09:51:43.767Z,10.39
2023-04-19T09:53:48.739Z,10.36
2023-04-19T09:56:01.350Z,10.28
2023-04-19T09:58:07.389Z,10.32
2023-04-19T10:00:15.720Z,10.33
2023-04-19T10:02:22.254Z,10.39
2023-04-19T10:04:38.350Z,10.43
2023-04-19T10:09:06.677Z,10.44
2023-04-19T10:11:13.950Z,10.52
2023-04-19T10:13:26.680Z,10.63
2023-04-19T10:15:49.511Z,10.68
2023-04-19T10:17:58.005Z,10.66
2023-04-19T10:20:10.815Z,10.76
2023-04-19T10:22:18.499Z,10.87
2023-04-19T10:24:24.097Z,11.13
2023-04-19T10:26:29.222Z,11.28
2023-04-19T10:28:34.356Z,11.23
2023-04-19T10:30:39.145Z,11.28
2023-04-19T10:32:45.797Z,11.49
2023-04-19T10:34:50.755Z,11.43
2023-04-19T10:36:55.732Z,11.34
2023-04-19T10:39:04.155Z,11.33
2023-04-19T10:41:15.425Z,11.45
2023-04-19T10:43:21.893Z,11.61
2023-04-19T10:45:36.919Z,11.77
2023-04-19T10:47:44.671Z,11.89
2023-04-19T10:49:49.787Z,11.79
2023-04-19T10:51:55.065Z,11.80
2023-04-19T10:54:04.179Z,11.84
2023-04-19T10:56:09.462Z,12.08
2023-04-19T10:58:14.480Z,12.16
2023-04-19T11:00:25.831Z,12.04
2023-04-19T11:02:33.554Z,12.16
2023-04-19T11:05:04.588Z,12.22
2023-04-19T11:07:10.731Z,12.21
2023-04-19T11:09:25.175Z,12.44
2023-04-19T11:11:31.279Z,12.53
2023-04-19T11:13:39.202Z,12.50
2023-04-19T11:15:46.287Z,12.57
2023-04-19T11:18:08.934Z,12.59
2023-04-19T11:20:16.841Z,12.80
2023-04-19T11:22:21.768Z,12.78
2023-04-19T11:24:29.304Z,12.89
2023-04-19T11:26:34.264Z,12.78
2023-04-19T11:28:39.194Z,12.91
2023-04-19T11:30:44.083Z,12.77
2023-04-19T11:32:50.320Z,12.60
2023-04-19T11:34:55.241Z,12.63
2023-04-19T11:37:00.191Z,12.47
2023-04-19T11:39:05.134Z,12.38
2023-04-19T11:41:12.697Z,12.37
2023-04-19T11:43:17.677Z,12.30
2023-04-19T11:45:32.212Z,12.42
2023-04-19T11:47:50.570Z,12.53
2023-04-19T11:49:57.571Z,12.45
2023-04-19T11:52:05.534Z,12.40
2023-04-19T11:54:17.123Z,12.42
2023-04-19T11:56:24.943Z,12.34
2023-04-19T11:58:33.266Z,12.28
2023-04-19T12:00:38.779Z,12.25
2023-04-19T12:02:45.794Z,12.26
2023-04-19T12:04:51.175Z,12.28
2023-04-19T12:07:01.390Z,12.41
2023-04-19T12:09:10.842Z,12.58
2023-04-19T12:11:16.776Z,12.74
2023-04-19T12:13:24.228Z,12.72
2023-04-19T12:15:44.524Z,12.65
2023-04-19T12:18:07.135Z,12.49
2023-04-19T12:20:15.009Z,12.34
2023-04-19T12:22:24.352Z,12.27
2023-04-19T12:24:29.394Z,12.29
2023-04-19T12:26:34.543Z,12.33
2023-04-19T12:28:42.659Z,12.34
2023-04-19T12:30:47.731Z,12.39
2023-04-19T12:32:55.632Z,12.37
2023-04-19T12:35:00.615Z,12.39
2023-04-19T12:37:06.108Z,12.43
2023-04-19T12:39:11.093Z,12.43
2023-04-19T12:41:16.126Z,12.34
2023-04-19T12:43:21.144Z,12.34
2023-04-19T12:45:28.534Z,12.38
2023-04-19T12:47:33.748Z,12.54
2023-04-19T12:49:39.192Z,12.61
2023-04-19T12:51:44.913Z,12.39
2023-04-19T12:53:51.096Z,12.34
2023-04-19T12:55:55.968Z,12.31
2023-04-19T12:58:02.318Z,12.30
2023-04-19T13:00:10.741Z,12.21
2023-04-19T13:02:18.333Z,12.20
2023-04-19T13:04:23.821Z,12.29
2023-04-19T13:06:29.612Z,12.32
2023-04-19T13:08:44.662Z,12.39
2023-04-19T13:10:52.392Z,12.41
2023-04-19T13:12:59.187Z,12.31
2023-04-19T13:15:06.649Z,12.20
2023-04-19T13:17:11.744Z,12.25
2023-04-19T13:19:19.174Z,12.24
2023-04-19T13:21:24.283Z,12.19
2023-04-19T13:23:29.305Z,12.31
2023-04-19T13:25:34.246Z,12.32
2023-04-19T13:27:43.143Z,12.48
2023-04-19T13:29:48.313Z,12.61
2023-04-19T13:31:55.355Z,12.61
2023-04-19T13:34:00.849Z,12.63
2023-04-19T13:36:10.378Z,12.79
2023-04-19T13:38:15.413Z,12.96
2023-04-19T13:40:20.518Z,13.02
2023-04-19T13:42:25.823Z,13.11
2023-04-19T13:44:31.304Z,13.23
2023-04-19T13:46:36.614Z,13.30
2023-04-19T13:48:41.653Z,13.30
2023-04-19T13:50:51.614Z,13.27
2023-04-19T13:52:59.398Z,13.12
2023-04-19T13:55:04.325Z,13.18
2023-04-19T13:57:09.578Z,13.40
2023-04-19T13:59:14.283Z,13.52
2023-04-19T14:01:19.296Z,13.72
2023-04-19T14:03:25.313Z,13.85
2023-04-19T14:05:30.347Z,13.77
2023-04-19T14:07:35.509Z,13.57
2023-04-19T14:09:42.893Z,13.21
2023-04-19T14:11:49.101Z,12.87
2023-04-19T14:13:54.195Z,12.65
2023-04-19T14:15:59.095Z,12.75
2023-04-19T14:18:05.158Z,13.06
2023-04-19T14:20:13.297Z,13.47
2023-04-19T14:22:19.464Z,13.72
2023-04-19T14:24:24.731Z,13.40
2023-04-19T14:26:32.214Z,13.32
2023-04-19T14:28:37.062Z,13.35
2023-04-19T14:30:42.202Z,13.49
2023-04-19T14:32:47.157Z,13.62
2023-04-19T14:34:59.028Z,13.76
2023-04-19T14:37:03.944Z,13.54
2023-04-19T14:39:10.305Z,13.32
2023-04-19T14:41:15.374Z,13.25
2023-04-19T14:43:22.899Z,13.23
2023-04-19T14:45:28.096Z,13.42
2023-04-19T14:47:32.830Z,13.34
2023-04-19T14:49:37.889Z,13.44
2023-04-19T14:51:45.140Z,13.51
2023-04-19T14:53:50.105Z,13.69
2023-04-19T14:55:58.321Z,13.59
2023-04-19T14:58:03.161Z,13.62
2023-04-19T15:00:12.603Z,13.56
2023-04-19T15:02:17.757Z,13.49
2023-04-19T15:04:22.856Z,13.36
2023-04-19T15:06:27.955Z,13.38
2023-04-19T15:08:33.025Z,13.30
2023-04-19T15:10:39.144Z,13.45
2023-04-19T15:12:44.254Z,13.57
2023-04-19T15:14:49.171Z,13.66
2023-04-19T15:16:56.702Z,13.65
2023-04-19T15:19:02.524Z,13.70
2023-04-19T15:21:08.099Z,13.79
2023-04-19T15:23:13.963Z,13.67
2023-04-19T15:25:18.823Z,13.23
2023-04-19T15:27:23.899Z,13.21
2023-04-19T15:29:28.790Z,13.36
2023-04-19T15:32:05.545Z,13.59
2023-04-19T15:34:10.907Z,13.68
2023-04-19T15:36:15.602Z,13.57
2023-04-19T15:38:20.765Z,13.45
2023-04-19T15:40:25.531Z,13.50
2023-04-19T15:42:30.538Z,13.76
2023-04-19T15:44:36.000Z,13.89
2023-04-19T15:46:40.948Z,13.68
2023-04-19T15:48:49.716Z,13.80
2023-04-19T15:50:54.676Z,13.89
2023-04-19T15:53:00.023Z,13.83
2023-04-19T15:55:05.052Z,13.88
2023-04-19T15:57:09.919Z,14.06
2023-04-19T15:59:15.041Z,14.12
2023-04-19T16:01:19.999Z,14.30
2023-04-19T16:03:25.187Z,14.35
2023-04-19T16:05:32.758Z,14.31
2023-04-19T16:07:37.974Z,14.21
2023-04-19T16:09:42.926Z,14.00
2023-04-19T16:11:48.124Z,13.98
2023-04-19T16:13:52.791Z,13.54
2023-04-19T16:15:57.816Z,13.41
2023-04-19T16:18:02.861Z,13.30
2023-04-19T16:20:10.427Z,13.16
2023-04-19T16:22:17.875Z,12.88
2023-04-19T16:24:22.874Z,12.63
2023-04-19T16:26:29.064Z,12.58
2023-04-19T16:28:33.742Z,12.50
2023-04-19T16:30:38.723Z,12.40
2023-04-19T16:32:44.347Z,12.32
2023-04-19T16:34:49.225Z,12.40
2023-04-19T16:36:54.221Z,12.21
2023-04-19T16:39:02.117Z,12.07
2023-04-19T16:41:07.436Z,11.99
2023-04-19T16:43:12.309Z,11.95
2023-04-19T16:45:18.750Z,11.81
2023-04-19T16:47:24.561Z,11.71
2023-04-19T16:49:29.728Z,11.71
2023-04-19T16:51:34.658Z,11.65
2023-04-19T16:53:39.705Z,11.59
2023-04-19T16:55:47.328Z,11.55
2023-04-19T16:57:53.936Z,11.53
2023-04-19T16:59:58.844Z,11.48
2023-04-19T17:02:04.173Z,11.44
2023-04-19T17:04:09.332Z,11.45
2023-04-19T17:06:14.807Z,11.42
2023-04-19T17:08:21.625Z,11.34
2023-04-19T17:10:27.544Z,11.37
2023-04-19T17:12:35.185Z,11.26
2023-04-19T17:14:42.228Z,11.30
2023-04-19T17:16:47.163Z,11.11
2023-04-19T17:18:52.163Z,10.95
2023-04-19T17:20:57.333Z,10.87
2023-04-19T17:23:02.382Z,10.81
2023-04-19T17:25:08.051Z,10.71
2023-04-19T17:27:13.337Z,10.65
2023-04-19T17:29:20.602Z,10.57
2023-04-19T17:31:25.595Z,10.56
2023-04-19T17:33:30.743Z,10.54
2023-04-19T17:35:35.702Z,10.51
2023-04-19T17:37:40.695Z,10.39
2023-04-19T17:39:47.984Z,10.35
2023-04-19T17:41:52.858Z,10.33
2023-04-19T17:43:57.728Z,10.41
2023-04-19T17:46:05.365Z,10.38
2023-04-19T17:48:10.611Z,10.30
2023-04-19T17:50:16.758Z,10.35
2023-04-19T17:52:21.951Z,10.34
2023-04-19T17:54:26.893Z,10.32
2023-04-19T17:56:31.737Z,10.20
2023-04-19T17:58:37.336Z,10.16
2023-04-19T18:00:42.932Z,10.07
2023-04-19T18:02:50.533Z,9.95
2023-04-19T18:04:55.997Z,9.88
2023-04-19T18:07:01.061Z,9.84
2023-04-19T18:09:09.596Z,9.85
2023-04-19T18:11:15.291Z,9.79
2023-04-19T18:13:20.195Z,9.80
2023-04-19T18:15:25.097Z,9.77
2023-04-19T18:17:30.086Z,9.63
2023-04-19T18:19:37.766Z,9.69
2023-04-19T18:21:44.788Z,9.59
2023-04-19T18:23:52.682Z,9.57
2023-04-19T18:25:58.690Z,9.47
2023-04-19T18:28:03.645Z,9.44
2023-04-19T18:30:10.112Z,9.33
2023-04-19T18:32:15.132Z,9.26
2023-04-19T18:34:19.995Z,9.20
2023-04-19T18:36:28.281Z,9.20
2023-04-19T18:38:33.168Z,9.13
2023-04-19T18:40:38.153Z,9.09
2023-04-19T18:42:43.098Z,9.07
2023-04-19T18:46:58.963Z,9.03
2023-04-19T18:49:03.987Z,9.02
2023-04-19T18:51:11.814Z,9.02
2023-04-19T18:53:19.475Z,9.06
2023-04-19T18:55:24.600Z,9.10
2023-04-19T18:57:34.159Z,9.14
2023-04-19T18:59:42.598Z,9.12
2023-04-19T19:01:48.709Z,9.13
2023-04-19T19:06:05.982Z,9.11
2023-04-19T19:08:11.311Z,9.10
2023-04-19T19:10:21.914Z,9.11
2023-04-19T19:12:28.147Z,9.06
2023-04-19T19:14:35.802Z,9.01
2023-04-19T19:16:51.261Z,9.04
2023-04-19T19:18:56.727Z,9.06
2023-04-19T19:21:02.358Z,9.03
2023-04-19T19:23:07.320Z,9.05
2023-04-19T19:25:13.631Z,9.04
2023-04-19T19:27:21.162Z,9.05
2023-04-19T19:29:26.060Z,9.06
2023-04-19T19:31:31.312Z,9.09
2023-04-19T19:35:43.096Z,9.09
2023-04-19T19:37:50.380Z,9.06
2023-04-19T19:40:03.815Z,9.00
2023-04-19T19:42:10.284Z,8.91
2023-04-19T19:44:18.419Z,8.84
2023-04-19T19:46:24.291Z,8.81
2023-04-19T19:48:30.512Z,8.76
2023-04-19T19:52:44.965Z,8.65
2023-04-19T19:54:49.943Z,8.63
2023-04-19T19:59:03.249Z,8.65
2023-04-19T20:01:10.865Z,8.49
2023-04-19T20:03:24.897Z,8.49
2023-04-19T20:05:33.954Z,8.47
2023-04-19T20:08:00.549Z,8.40
2023-04-19T20:10:05.518Z,8.37
2023-04-19T20:12:12.814Z,8.37
2023-04-19T20:14:17.781Z,8.39
2023-04-19T20:16:25.385Z,8.40
2023-04-19T20:18:30.606Z,8.37
2023-04-19T20:20:35.630Z,8.39
2023-04-19T20:22:40.912Z,8.35
2023-04-19T20:24:47.161Z,8.33
2023-04-19T20:26:52.219Z,8.35
2023-04-19T20:28:57.430Z,8.36
2023-04-19T20:31:02.505Z,8.37
2023-04-19T20:33:10.208Z,8.40
2023-04-19T20:35:15.237Z,8.38
2023-04-19T20:37:22.686Z,8.31
2023-04-19T20:39:27.931Z,8.34
2023-04-19T20:41:32.660Z,8.29
2023-04-19T20:43:37.599Z,8.21
2023-04-19T20:45:43.864Z,8.22
2023-04-19T20:47:48.865Z,8.21
2023-04-19T20:49:56.376Z,8.23
2023-04-19T20:52:01.313Z,8.22
2023-04-19T20:54:06.330Z,8.20
2023-04-19T20:56:11.287Z,8.17
2023-04-19T20:58:16.289Z,8.15
2023-04-19T21:00:21.803Z,8.18
2023-04-19T21:02:26.807Z,8.18
2023-04-19T21:04:32.104Z,8.20
2023-04-19T21:06:39.654Z,8.18
2023-04-19T21:08:44.530Z,8.13
2023-04-19T21:10:49.429Z,8.13
2023-04-19T21:12:54.372Z,8.11
2023-04-19T21:14:59.236Z,8.11
2023-04-19T21:17:04.707Z,8.13
2023-04-19T21:19:09.644Z,8.13
2023-04-19T21:21:14.481Z,8.14
2023-04-19T21:23:21.921Z,8.15
2023-04-19T21:25:27.019Z,8.16
2023-04-19T21:27:34.321Z,8.16
2023-04-19T21:29:39.217Z,8.13
2023-04-19T21:31:44.233Z,8.13
2023-04-19T21:33:49.193Z,8.10
2023-04-19T21:35:54.100Z,8.08
2023-04-19T21:37:59.014Z,8.09
2023-04-19T21:40:07.336Z,8.10
2023-04-19T21:42:12.178Z,8.09
2023-04-19T21:44:17.107Z,8.10
2023-04-19T21:46:22.044Z,8.05
2023-04-19T21:48:27.080Z,8.00
2023-04-19T21:50:35.019Z,7.98
2023-04-19T21:52:42.837Z,7.98
2023-04-19T21:54:48.843Z,8.00
2023-04-19T21:56:57.839Z,8.04
2023-04-19T21:59:02.872Z,7.99
2023-04-19T22:01:07.973Z,7.99
2023-04-19T22:03:12.937Z,7.96
2023-04-19T22:05:18.172Z,7.90
2023-04-19T22:07:24.099Z,7.74
2023-04-19T22:09:29.105Z,7.72
2023-04-19T22:11:34.289Z,7.70
2023-04-19T22:13:41.741Z,7.73
2023-04-19T22:15:46.764Z,7.79
2023-04-19T22:17:52.159Z,7.81
2023-04-19T22:19:59.223Z,7.74
2023-04-19T22:22:04.062Z,7.69
2023-04-19T22:24:10.173Z,7.67
2023-04-19T22:26:15.032Z,7.64
2023-04-19T22:28:20.056Z,7.61
2023-04-19T22:30:27.536Z,7.43
2023-04-19T22:32:32.492Z,7.35
2023-04-19T22:34:37.407Z,7.26
2023-04-19T22:36:42.975Z,7.20
2023-04-19T22:38:48.035Z,7.12
2023-04-19T22:40:52.990Z,7.08
2023-04-19T22:42:57.885Z,7.03
2023-04-19T22:45:02.776Z,6.99
2023-04-19T22:47:12.011Z,7.04
2023-04-19T22:49:17.096Z,7.10
2023-04-19T22:51:22.667Z,7.01
2023-04-19T22:53:27.548Z,6.93
2023-04-19T22:55:32.593Z,6.90
2023-04-19T22:57:37.420Z,6.95
2023-04-19T22:59:42.709Z,6.97
2023-04-19T23:01:47.657Z,6.95
2023-04-19T23:03:59.742Z,6.88
2023-04-19T23:06:04.737Z,6.80
2023-04-19T23:08:09.585Z,6.77
2023-04-19T23:10:15.141Z,6.83
2023-04-19T23:12:20.161Z,6.89
2023-04-19T23:14:25.150Z,6.91
2023-04-19T23:16:30.247Z,6.89
2023-04-19T23:18:35.475Z,6.90
2023-04-19T23:20:45.736Z,6.92
2023-04-19T23:22:50.693Z,6.91
2023-04-19T23:24:55.650Z,6.85
2023-04-19T23:27:00.480Z,6.80
2023-04-19T23:29:05.408Z,6.79
2023-04-19T23:31:10.262Z,6.78
2023-04-19T23:33:15.156Z,6.75
2023-04-19T23:35:20.130Z,6.72
2023-04-19T23:37:27.613Z,6.70
2023-04-19T23:39:32.472Z,6.68
2023-04-19T23:41:37.420Z,6.70
2023-04-19T23:43:42.579Z,6.70
2023-04-19T23:45:47.389Z,6.71
2023-04-19T23:47:52.843Z,6.69
2023-04-19T23:49:57.798Z,6.66
2023-04-19T23:52:02.684Z,6.63
2023-04-19T23:54:10.231Z,6.60
2023-04-19T23:56:15.114Z,6.52
2023-04-19T23:58:19.967Z,6.48
